Aérodrome :
LOGIN :

S'inscrire | Disclaimer

   EN    FR    IT 

 










Légende :    VFR   VFR Marginal   IFR   IFR Intensif   IFR Très Intensif
Visi : 
Plafond : 
>= 8 km
>= 3000ft
5 à 8 km
1000 à 3000 ft
1500m à 5 km
500 à 1000 ft
800 à 1500m
200 à 500 ft
< 800m
< 200 ft
Symboles :   Orages  Brouillard  Fortes neiges  Fortes précipitations  Vent > 20 kt
SIGMETs :   Divers  Orages  Givrage  Turbulence  Onde Orograph.  Cendres Volcan.







- Altitude de l'aérodrome : 122 ft
- Code IATA : TXL


EDDT - Berlin Tegel Int.

DERNIER METAR :
  • 220420Z 15011KT 9999 BKN009 00/M02 Q1014 R88/190095 BECMG SCT009

METARs EXPIRÉS :
  • 220350Z 14009KT 9999 BKN008 M00/M02 Q1014 R88/190095 BECMG BKN010
  • 220320Z 15008KT 9000 OVC007 M00/M01 Q1015 R88/190095
  • 220250Z 15009KT 9000 OVC007 M00/M02 Q1015 R88/190095
  • 220220Z 14011KT 9999 OVC008 M00/M02 Q1015 R88/190095
  • 220150Z 15010KT 120V180 9999 OVC008 M00/M02 Q1016 R88/190095
  • 220120Z 15007KT 9999 OVC008 M00/M02 Q1016 R88/190095

TAF TAF EDDT
Valide du 22 à 00h jusqu'au 23 à 00h UTC


212300Z 2200/2224 13008KT 6000 BKN010
TEMPO 2200/2206 3000 BR BKN004
PROB30
TEMPO 2202/2206 SCT010
BECMG 2206/2209 SCT010
BECMG 2213/2216 OVC010
TEMPO 2215/2224 2500 -SN BKN005
Pas de NOTAMs connus pour ce terrain.
1 SIGMET publié pour la FIR Bremen (EDWW) :
 
Givrage fort
EDWW SIGMET 1 VALID 220100/220500 EDZH
EDWW BREMEN FIR SEV ICE FCST W OF E00800 3000FT/FL120 MOV E NC=



MET'MAP, la Météo Aéronautique d'un coup d'oeil ! - Copyright ORBIFLY Décembre 2007 - Disclaimer

ORBIFLY MET'MAP TEAM :

Programmation & Développement : Alexandra Zaïnal
Conception & Développement : Baudouin d'Aumeries
Co-Programmation & Développement : Marc-Olivier Méhu
Soutien technique & logistique : Manuel Goepfert

Contact : metmap@orbifly.com




SOURCES & CREDITS :

   NOAA